Flight Track Log - Related Links

Times and Time Zones

All times are in EDT time to prevent confusion due to time zone crossing. See the N697BJ flight status page for this flight to view local times or setup timezone preferences in your user account.

Time Position Orientation Groundspeed Altitude Reporting Facility
EDT Latitude Longitude Course Direction KTS MPH feet Rate Location/Type
Mon 03:08:04 AM 38.7661 -97.4375 78° East 273 314 9,000  Level Kansas City Center
Mon 03:09:04 AM 38.7928 -97.3294 72° East 307 353 11,100 2,213 Climbing Kansas City Center
Mon 03:10:06 AM 38.8139 -97.2131 77° East 341 392 13,500 2,244 Climbing Kansas City Center
Mon 03:11:00 AM 38.9290 -96.8219 76° East  Level FlightAware Approximate
Mon 03:11:07 AM 38.8408 -97.0897 74° East 360 414 15,700  Level Kansas City Center
Mon 03:12:00 AM 38.9500 -96.6819 90° East  Level FlightAware Approximate
Mon 03:12:05 AM 38.8717 -96.9561 73° East 388 447 17,700  Level Kansas City Center
Mon 03:13:05 AM 38.9011 -96.8178 75° East 399 459 19,600 2,083 Climbing Kansas City Center
Mon 03:14:06 AM 38.9294 -96.6725 76° East 415 478 21,900 1,636 Climbing Kansas City Center
Mon 03:15:06 AM 38.9517 -96.5278 79° East 414 476 22,900 1,300 Climbing Kansas City Center
Mon 03:16:06 AM 38.9611 -96.3725 85° East 436 502 24,500 1,450 Climbing Kansas City Center
Mon 03:17:06 AM 38.9817 -96.2217 80° East 446 513 25,800 1,350 Climbing Kansas City Center
Mon 03:18:06 AM 39.0089 -96.0453 79° East 450 518 27,200 1,190 Climbing Kansas City Center
Mon 03:19:07 AM 39.0256 -95.8897 82° East 460 529 28,200 1,016 Climbing Kansas City Center
Mon 03:20:10 AM 39.0478 -95.7333 80° East 466 536 29,300 1,050 Climbing Kansas City Center
Mon 03:21:07 AM 39.0722 -95.5511 80° East 463 533 30,300 1,119 Climbing Kansas City Center
Mon 03:22:08 AM 39.0989 -95.3872 78° East 469 540 31,500 893 Climbing Kansas City Center
Mon 03:23:08 AM 39.1294 -95.2253 76° East 470 541 32,100 689 Climbing Kansas City Center
Mon 03:24:10 AM 39.1456 -95.0578 83° East 480 552 32,900 450 Climbing Kansas City Center
Mon 03:25:08 AM 39.1503 -94.8939 88° East 481 554 33,000 51 Climbing Kansas City Center
Mon 03:26:08 AM 39.1508 -94.7256 90° East 490 564 33,000  Level Kansas City Center
Mon 03:27:10 AM 39.1592 -94.5317 87° East 488 562 33,000  Level Kansas City Center
Mon 03:28:10 AM 39.1853 -94.3667 78° East 492 566 33,000  Level Kansas City Center
Mon 03:29:12 AM 39.2069 -94.1986 81° East 495 570 33,000  Level Kansas City Center
Mon 03:30:11 AM 39.2344 -94.0044 80° East 494 568 33,000  Level Kansas City Center
Mon 03:31:10 AM 39.2589 -93.8372 79° East 494 568 33,000  Level Kansas City Center
Mon 03:32:10 AM 39.2825 -93.6828 79° East 498 573 33,000  Level Kansas City Center
Mon 03:33:10 AM 39.3094 -93.5106 79° East 496 571 33,000  Level Kansas City Center
Mon 03:34:10 AM 39.3344 -93.3342 80° East 498 573 33,000  Level Kansas City Center
Mon 03:35:11 AM 39.3569 -93.1267 82° East 496 571 33,000  Level Kansas City Center
Mon 03:36:12 AM 39.3689 -92.9508 85° East 498 573 33,000  Level Kansas City Center
Mon 03:37:11 AM 39.3783 -92.7736 86° East 499 574 33,000  Level Kansas City Center
Mon 03:38:14 AM 39.3911 -92.5961 85° East 500 575 33,000  Level Kansas City Center
Mon 03:39:12 AM 39.4114 -92.4253 81° East 496 571 33,000  Level Kansas City Center
Mon 03:40:13 AM 39.4331 -92.2553 81° East 490 564 33,000  Level Kansas City Center
Mon 03:41:12 AM 39.4528 -92.0856 81° East 486 559 33,000  Level Kansas City Center
Mon 03:42:16 AM 39.4725 -91.9128 82° East 489 563 33,000  Level Kansas City Center
Mon 03:43:17 AM 39.4933 -91.7400 81° East 490 564 33,000  Level Kansas City Center
Mon 03:44:15 AM 39.5139 -91.5694 81° East 487 560 33,000  Level Kansas City Center
Mon 03:45:17 AM 39.5319 -91.3994 82° East 484 557 33,000  Level Kansas City Center
Mon 03:46:16 AM 39.5456 -91.2303 84° East 483 556 33,000  Level Kansas City Center
Mon 03:47:17 AM 39.5542 -91.0556 86° East 484 557 33,000  Level Kansas City Center
Mon 03:48:16 AM 39.5631 -90.8836 86° East 482 555 33,000  Level Kansas City Center
Mon 03:49:17 AM 39.5747 -90.7089 85° East 484 557 33,000  Level Kansas City Center
Mon 03:50:19 AM 39.5889 -90.5361 84° East 483 556 33,000  Level Kansas City Center
Mon 03:51:19 AM 39.6064 -90.3653 82° East 480 552 33,000  Level Kansas City Center
Mon 03:52:18 AM 39.6194 -90.1939 84° East 478 550 33,000  Level Kansas City Center
Mon 03:53:19 AM 39.6350 -90.0217 83° East 479 551 33,000  Level Kansas City Center
Mon 03:54:18 AM 39.6511 -89.8478 83° East 482 555 33,000  Level Kansas City Center
Mon 03:55:20 AM 39.6692 -89.6750 82° East 483 556 33,000  Level Kansas City Center
Mon 03:56:20 AM 39.6878 -89.5028 82° East 481 554 33,000  Level Kansas City Center
Mon 03:57:21 AM 39.7047 -89.3303 83° East 482 555 33,000  Level Kansas City Center
Mon 03:58:20 AM 39.7183 -89.1592 84° East 481 554 33,000  Level Kansas City Center
Mon 03:59:21 AM 39.7292 -88.9889 85° East 479 551 33,000  Level Kansas City Center
Mon 04:00:19 AM 39.7411 -88.8186 85° East 477 549 33,000  Level Kansas City Center
Mon 04:01:21 AM 39.7533 -88.6133 86° East 477 549 33,000  Level Kansas City Center
Mon 04:02:22 AM 39.7625 -88.4414 86° East 478 550 33,000  Level Kansas City Center
Mon 04:03:23 AM 39.7736 -88.2689 85° East 480 552 33,000  Level Kansas City Center
Mon 04:04:22 AM 39.7842 -88.1108 85° East 480 552 33,000  Level Kansas City Center
Mon 04:05:04 AM 39.7911 -87.9769 86° East 477 549 33,000  Level Indianapolis Center
Mon 04:06:04 AM 39.8028 -87.8050 85° East 476 548 33,000  Level Indianapolis Center
Mon 04:07:04 AM 39.8158 -87.6333 84° East 475 547 33,000  Level Indianapolis Center
Mon 04:08:04 AM 39.8292 -87.4617 84° East 475 547 33,000  Level Indianapolis Center
Mon 04:09:04 AM 39.8436 -87.2886 84° East 478 550 33,000  Level Indianapolis Center
Mon 04:10:05 AM 39.8569 -87.1164 84° East 476 548 33,000  Level Indianapolis Center
Mon 04:11:05 AM 39.8664 -86.9428 86° East 477 549 33,000  Level Indianapolis Center
Mon 04:12:05 AM 39.8733 -86.7675 87° East 480 552 33,000  Level Indianapolis Center
Mon 04:13:05 AM 39.8786 -86.5944 88° East 478 550 33,000  Level Indianapolis Center
Mon 04:14:05 AM 39.8794 -86.4550 90° East 478 550 33,000 -150 Level Indianapolis Center
Mon 04:15:05 AM 39.8811 -86.2828 89° East 474 545 32,700 -550 Descending Indianapolis Center
Mon 04:16:05 AM 39.8831 -86.1072 89° East 480 552 31,900 -850 Descending Indianapolis Center
Mon 04:17:05 AM 39.8900 -85.9175 87° East 484 557 31,000 -843 Descending Indianapolis Center
Mon 04:18:06 AM 39.9006 -85.7414 85° East 485 558 30,200 -793 Descending Indianapolis Center
Mon 04:19:06 AM 39.9158 -85.5647 84° East 486 559 29,400 -800 Descending Indianapolis Center
Mon 04:20:06 AM 39.9306 -85.3886 84° East 485 558 28,600 -850 Descending Indianapolis Center
Mon 04:21:06 AM 39.9436 -85.2114 84° East 488 562 27,700 -950 Descending Indianapolis Center
Mon 04:22:06 AM 39.9492 -85.0339 88° East 488 562 26,700 -1,150 Descending Indianapolis Center
Mon 04:23:06 AM 39.9536 -84.8547 88° East 491 565 25,400 -1,500 Descending Indianapolis Center
Mon 04:24:06 AM 39.9583 -84.6769 88° East 486 559 23,700 -1,587 Descending Indianapolis Center
Mon 04:25:07 AM 39.9667 -84.5075 86° East 467 537 22,200 -1,537 Descending Indianapolis Center
Mon 04:26:07 AM 39.9803 -84.3444 84° East 450 518 20,600 -1,750 Descending Indianapolis Center
Mon 04:27:07 AM 39.9872 -84.1906 87° East 426 490 18,700 -1,900 Descending Indianapolis Center
Mon 04:28:07 AM 39.9869 -84.0397 90° East 412 474 16,800 -2,000 Descending Indianapolis Center
Mon 04:29:07 AM 39.9850 -83.9203 91° East 396 456 14,700 -2,441 Descending Indianapolis Center
Mon 04:30:05 AM 39.9833 -83.7681 91° East 376 433 12,000 -1,785 Descending Indianapolis Center
Mon 04:31:08 AM 39.9856 -83.6508 89° East 358 412 11,100 -634 Descending Indianapolis Center
Mon 04:32:08 AM 39.9828 -83.5439 92° East 294 338 10,700 -850 Descending Indianapolis Center
Mon 04:33:08 AM 39.9636 -83.4467 104° East 272 313 9,400 -1,350 Descending Indianapolis Center
Mon 04:34:08 AM 39.9486 -83.3508 102° East 264 304 8,000 -1,600 Descending Indianapolis Center
Mon 04:35:08 AM 39.9667 -83.2547 76° East 267 307 6,200 -1,636 Descending Indianapolis Center
Mon 04:36:09 AM 39.9892 -83.1731 70° East 240 276 4,700 -1,240 Descending Indianapolis Center
Mon 04:37:09 AM 40.0019 -83.1011 77° East 210 242 3,700 -950 Descending Indianapolis Center
Mon 04:38:09 AM 40.0033 -83.0364 88° East 186 214 2,800 -900 Descending Indianapolis Center
Mon 04:39:09 AM 39.9994 -82.9819 95° East 166 191 1,900 -800 Descending Indianapolis Center
Mon 04:40:09 AM 39.9961 -82.9389 96° East 136 157 1,200 -500 Descending Indianapolis Center
Mon 04:41:09 AM 39.9933 -82.8931 95° East 129 148 900 -300 Descending Indianapolis Center

Login

Don't have an account? Register now (free) for customized features, flight alerts, and more!